COOK1: Arkansas River Nr Coolidge, KS

                                SHEF ID:       COOK1     ARKANSAS R NR COOLIDGE, KS
STATION TYPE:
Regulating: Stage = 8.00, Flow = 2028

PRECIP STAGE STAGE(2) RIV-FLOW WTR-TEMP CONDUCT BAT-LOAD
in ft ft cfs F umho/cm volt
Ccp-Rev Ccp-Rev Ccp-Rev Ccp-Rev Ccp-Rev Ccp-Rev Ccp-Rev
(America/Chicago)
07/29 00:00 0.00 4.67 4.79 411 80.87 3296 12.95
07/29 01:00 0.00 4.69 4.80 416 80.13 3299 12.95
07/29 02:00 0.00 4.68 4.81 413 79.27 3296 12.89
07/29 03:00 0.00 4.70 4.80 419 78.46 3278 12.89
07/29 04:00 0.00 4.70 4.80 419 77.79 3263 12.89
07/29 05:00 0.00 4.69 4.80 416 77.11 3254 12.89
07/29 06:00 0.00 4.70 4.81 419 76.39 3247 12.83
07/29 07:00 0.00 4.68 4.81 413 75.70 3253 12.83
07/29 08:00 0.00 4.68 4.82 413 75.04 3251 12.83
07/29 09:00 0.00 4.72 4.84 424 74.66 3254 12.89
07/29 10:00 0.00 4.71 4.85 422 74.79 3262 13.12
07/29 11:00 0.00 4.72 4.83 424 75.42 3263 13.59
07/29 12:00 0.00 4.71 4.83 422 76.48 3249 13.71
07/29 13:00 0.00 4.74 4.86 430 77.83 3253 13.77
07/29 14:00 0.00 4.72 4.85 424 79.27 3258 13.59
07/29 15:00 0.00 4.74 4.86 430 80.51 3263 13.36
07/29 16:00 0.00 4.71 4.85 422 81.70 3262 13.65
07/29 17:00 0.00 4.72 4.83 424 82.80 3253 13.53
07/29 18:00 0.00 4.70 4.81 419 83.57 3244 13.30
07/29 19:00 0.00 4.71 4.82 422 83.88 3231 13.18
07/29 20:00 0.00 4.70 4.82 419 83.75 3236 13.12
07/29 21:00 0.00 4.69 4.81 416 83.32 3267 13.07
07/29 22:00 0.00 4.71 4.82 422 82.74 3285 13.00
07/29 23:00 ---- ---- ---- ---- ---- ---- ----
Data processed at Tue 30Jul2024 04:30 GMT

Parsing this webpage?

Checkout our new Data API! CWMSDataAPI (CDA)

Timeseries IDs (TSIDs)

TSIDs used from left to right in the data table
COOL.Precip-Inc.Total.1Hour.1Hour.Ccp-Rev
COOL.Stage.Inst.1Hour.0.Ccp-Rev
COOL.Stage-Alt.Inst.1Hour.0.Ccp-Rev
COOL.Flow.Inst.1Hour.0.Ccp-Rev
COOL.Temp-Water.Inst.1Hour.0.Ccp-Rev
COOL.Cond.Inst.1Hour.0.Ccp-Rev
COOL.Volt-Battery Load.Inst.1Hour.0.Ccp-Rev

                            

All information presented herein is the property of the government of the United States of America and may be revised or deleted at any time without prior notice. Dissemination of this information without the expressed written consent of the Public Affairs Office, Tulsa District U.S. Army Corps of Engineers is strictly prohibited. These data are gathered electronically and, as presented, have NOT undergone any form of quality control. These data are NOT guaranteed to be valid or correct.